Time;durP1;ratioP1;P1;durP2;ratioP2;P2;SDS_P1;SDS_P2;PMS_P1;PMS_P2;Temp;Humidity;BMP_temperature;BMP_pressure;BME280_temperature;BME280_humidity;BME280_pressure;Samples;Min_cycle;Max_cycle;Signal;HPM_P1;HPM_P2
2022/10/14 00:01:31;;;;;;;21.33;16.63;;;;;;;;;;5050971;28;20204;-46
2022/10/14 00:03:58;;;;;;;19.03;14.67;;;;;;;;;;5050652;28;20224;-46
2022/10/14 00:06:25;;;;;;;18.57;14.27;;;;;;;;;;5050204;28;20200;-46
2022/10/14 00:08:53;;;;;;;16.23;13.63;;;;;;;;;;5050916;28;20224;-56
2022/10/14 00:11:20;;;;;;;20.77;15.80;;;;;;;;;;5049824;28;20204;-46
2022/10/14 00:13:46;;;;;;;22.60;17.03;;;;;;;;;;5050562;28;20655;-46
2022/10/14 00:16:17;;;;;;;24.33;17.47;;;;;;;;;;5050869;28;20271;-47
2022/10/14 00:18:43;;;;;;;17.83;15.20;;;;;;;;;;5050567;28;20651;-46
2022/10/14 00:21:10;;;;;;;18.20;13.80;;;;;;;;;;5050574;28;20192;-46
2022/10/14 00:23:36;;;;;;;17.90;15.17;;;;;;;;;;5053720;28;20204;-47
2022/10/14 00:26:03;;;;;;;18.27;14.63;;;;;;;;;;5053037;28;20276;-47
2022/10/14 00:28:29;;;;;;;25.43;16.33;;;;;;;;;;5053732;28;20250;-47
2022/10/14 00:30:55;;;;;;;15.70;13.97;;;;;;;;;;5054080;28;20208;-47
2022/10/14 00:33:22;;;;;;;17.90;15.30;;;;;;;;;;5053850;28;20204;-47
2022/10/14 00:35:53;;;;;;;21.70;15.73;;;;;;;;;;5052970;28;20966;-47
2022/10/14 00:38:19;;;;;;;20.80;15.00;;;;;;;;;;5053139;28;20204;-47
2022/10/14 00:40:45;;;;;;;24.53;16.43;;;;;;;;;;5054016;28;20211;-47
2022/10/14 00:43:13;;;;;;;18.43;16.37;;;;;;;;;;5053737;28;20197;-47
2022/10/14 00:45:39;;;;;;;21.57;17.13;;;;;;;;;;5053757;28;20221;-47
2022/10/14 00:48:05;;;;;;;22.67;16.90;;;;;;;;;;5053512;28;20651;-47
2022/10/14 00:50:32;;;;;;;18.27;15.43;;;;;;;;;;5053173;28;20240;-47
2022/10/14 00:52:58;;;;;;;20.33;17.10;;;;;;;;;;5053716;28;20204;-46
2022/10/14 00:55:25;;;;;;;25.27;17.90;;;;;;;;;;5053542;28;20223;-47
2022/10/14 00:57:51;;;;;;;24.17;17.90;;;;;;;;;;5053777;28;20212;-49
2022/10/14 01:00:20;;;;;;;24.37;18.07;;;;;;;;;;5053332;28;20234;-47
2022/10/14 01:02:46;;;;;;;22.63;17.53;;;;;;;;;;5053495;28;20215;-47
2022/10/14 01:05:13;;;;;;;25.90;18.90;;;;;;;;;;5052770;28;20307;-46
2022/10/14 01:07:45;;;;;;;23.50;18.33;;;;;;;;;;5053434;28;20231;-47
2022/10/14 01:10:14;;;;;;;20.40;17.87;;;;;;;;;;5053276;28;20212;-47
2022/10/14 01:12:49;;;;;;;23.50;18.77;;;;;;;;;;5053251;28;20662;-47
2022/10/14 01:15:20;;;;;;;23.30;18.53;;;;;;;;;;5053016;28;20300;-47
2022/10/14 01:17:53;;;;;;;25.70;18.30;;;;;;;;;;5053480;28;20242;-47
2022/10/14 01:20:30;;;;;;;22.33;18.03;;;;;;;;;;5052991;28;20630;-47
2022/10/14 01:23:05;;;;;;;22.97;17.87;;;;;;;;;;5053235;28;20207;-47
2022/10/14 01:25:33;;;;;;;20.40;16.83;;;;;;;;;;5052879;28;20249;-47
2022/10/14 01:28:18;;;;;;;23.17;18.30;;;;;;;;;;5052826;28;20655;-47
2022/10/14 01:30:48;;;;;;;20.63;17.83;;;;;;;;;;5052804;28;20659;-47
2022/10/14 01:33:16;;;;;;;27.70;19.40;;;;;;;;;;5051639;28;20540;-47
2022/10/14 01:35:47;;;;;;;20.07;17.17;;;;;;;;;;5052109;28;20198;-47
2022/10/14 01:38:15;;;;;;;22.00;18.90;;;;;;;;;;5052620;28;20192;-47
2022/10/14 01:40:45;;;;;;;28.80;19.90;;;;;;;;;;5052615;28;20201;-47
2022/10/14 01:43:12;;;;;;;22.20;19.03;;;;;;;;;;5052384;28;20207;-47
2022/10/14 01:45:40;;;;;;;27.03;20.60;;;;;;;;;;5052541;28;20228;-47
2022/10/14 01:48:09;;;;;;;26.37;20.53;;;;;;;;;;5052589;28;20306;-47
2022/10/14 01:50:36;;;;;;;23.10;18.97;;;;;;;;;;5052485;28;20711;-47
2022/10/14 01:53:04;;;;;;;23.90;20.57;;;;;;;;;;5050496;28;20287;-47
2022/10/14 01:55:32;;;;;;;31.80;21.73;;;;;;;;;;5052322;28;20211;-47
2022/10/14 01:57:58;;;;;;;31.63;22.43;;;;;;;;;;5052038;28;20231;-47
2022/10/14 02:00:24;;;;;;;28.20;21.10;;;;;;;;;;5052239;28;20200;-47
2022/10/14 02:02:50;;;;;;;25.60;19.27;;;;;;;;;;5052171;28;20742;-47
2022/10/14 02:05:20;;;;;;;28.43;20.27;;;;;;;;;;5052082;28;20228;-47
2022/10/14 02:07:48;;;;;;;24.37;20.37;;;;;;;;;;5051793;28;20226;-47
2022/10/14 02:10:19;;;;;;;32.30;22.90;;;;;;;;;;5051805;28;20618;-47
2022/10/14 02:12:51;;;;;;;31.30;22.63;;;;;;;;;;5051963;28;20246;-47
2022/10/14 02:15:19;;;;;;;27.60;22.83;;;;;;;;;;5051900;28;20623;-47
2022/10/14 02:17:50;;;;;;;29.77;22.47;;;;;;;;;;5051936;28;20192;-47
2022/10/14 02:20:21;;;;;;;24.37;21.10;;;;;;;;;;5051783;28;20239;-47
2022/10/14 02:22:51;;;;;;;29.47;22.13;;;;;;;;;;5052147;28;20200;-47
2022/10/14 02:25:18;;;;;;;28.53;22.50;;;;;;;;;;5051645;28;20744;-47
2022/10/14 02:27:46;;;;;;;29.10;23.10;;;;;;;;;;5051691;28;20196;-47
2022/10/14 02:30:12;;;;;;;26.40;21.33;;;;;;;;;;5051788;28;20223;-47
2022/10/14 02:32:39;;;;;;;30.07;23.60;;;;;;;;;;5051521;28;20223;-47
2022/10/14 02:35:07;;;;;;;30.80;24.23;;;;;;;;;;5051479;28;20599;-47
2022/10/14 02:37:34;;;;;;;33.30;24.43;;;;;;;;;;5051647;28;20192;-47
2022/10/14 02:40:04;;;;;;;31.63;24.97;;;;;;;;;;5051460;28;20257;-47
2022/10/14 02:42:30;;;;;;;32.57;24.33;;;;;;;;;;5051443;28;20620;-47
2022/10/14 02:44:57;;;;;;;33.33;25.83;;;;;;;;;;5050745;28;20220;-47
2022/10/14 02:47:24;;;;;;;29.07;23.27;;;;;;;;;;5051284;28;20196;-47
2022/10/14 02:49:50;;;;;;;33.63;25.33;;;;;;;;;;5051241;28;20718;-47
2022/10/14 02:52:16;;;;;;;33.00;25.57;;;;;;;;;;5051373;28;20290;-47
2022/10/14 02:54:43;;;;;;;36.50;25.97;;;;;;;;;;5051555;28;20242;-47
2022/10/14 02:57:09;;;;;;;33.50;25.73;;;;;;;;;;5051143;28;20298;-47
2022/10/14 02:59:35;;;;;;;36.40;27.10;;;;;;;;;;5051384;28;20199;-47
2022/10/14 03:02:01;;;;;;;33.30;26.90;;;;;;;;;;5051275;28;20192;-47
2022/10/14 03:04:28;;;;;;;45.50;29.23;;;;;;;;;;5051042;28;20226;-47
2022/10/14 03:06:54;;;;;;;37.17;27.20;;;;;;;;;;5051185;28;20286;-47
2022/10/14 03:09:20;;;;;;;36.00;27.27;;;;;;;;;;5051080;28;20224;-47
2022/10/14 03:11:47;;;;;;;32.57;25.37;;;;;;;;;;5051319;28;20241;-47
2022/10/14 03:14:13;;;;;;;28.80;24.00;;;;;;;;;;5051022;28;20295;-47
2022/10/14 03:16:39;;;;;;;30.60;24.53;;;;;;;;;;5051301;28;20200;-47
2022/10/14 03:19:05;;;;;;;33.07;26.40;;;;;;;;;;5050994;28;20212;-47
2022/10/14 03:21:31;;;;;;;33.77;26.00;;;;;;;;;;5051154;28;20200;-47
2022/10/14 03:23:57;;;;;;;29.50;23.73;;;;;;;;;;5050760;28;20275;-47
2022/10/14 03:26:25;;;;;;;37.50;26.73;;;;;;;;;;5050796;28;20228;-47
2022/10/14 03:28:53;;;;;;;35.50;27.27;;;;;;;;;;5050864;28;20670;-47
2022/10/14 03:31:19;;;;;;;31.17;24.80;;;;;;;;;;5050860;28;20207;-47
2022/10/14 03:33:45;;;;;;;35.90;26.93;;;;;;;;;;5050812;28;20643;-47
2022/10/14 03:36:11;;;;;;;38.80;28.17;;;;;;;;;;5050960;28;20246;-47
2022/10/14 03:38:37;;;;;;;36.03;29.00;;;;;;;;;;5050873;28;20200;-47
2022/10/14 03:41:03;;;;;;;37.83;29.60;;;;;;;;;;5050517;28;20552;-47
2022/10/14 03:43:29;;;;;;;49.13;31.60;;;;;;;;;;5050463;28;20662;-47
2022/10/14 03:45:57;;;;;;;41.63;29.00;;;;;;;;;;5050725;28;20258;-47
2022/10/14 03:48:23;;;;;;;41.73;30.23;;;;;;;;;;5050682;28;20192;-47
2022/10/14 03:50:49;;;;;;;35.73;28.20;;;;;;;;;;5050876;28;20236;-47
2022/10/14 03:53:15;;;;;;;43.67;30.63;;;;;;;;;;5050685;28;20200;-47
2022/10/14 03:55:41;;;;;;;42.03;30.87;;;;;;;;;;5052371;28;20196;-47
2022/10/14 03:58:07;;;;;;;41.07;29.43;;;;;;;;;;5054627;28;20196;-47
2022/10/14 04:00:34;;;;;;;39.77;29.77;;;;;;;;;;5054135;28;20192;-47
2022/10/14 04:03:01;;;;;;;51.27;32.20;;;;;;;;;;5054540;28;20279;-47
2022/10/14 04:05:32;;;;;;;47.17;32.27;;;;;;;;;;5054347;28;20319;-47
2022/10/14 04:07:59;;;;;;;46.03;32.53;;;;;;;;;;5054419;28;20227;-47
2022/10/14 04:10:25;;;;;;;45.63;31.33;;;;;;;;;;5054011;28;20204;-47
2022/10/14 04:12:52;;;;;;;42.93;33.53;;;;;;;;;;5054415;28;20199;-47
2022/10/14 04:15:18;;;;;;;47.60;32.47;;;;;;;;;;5053993;28;20246;-47
2022/10/14 04:17:44;;;;;;;42.30;31.87;;;;;;;;;;5054153;28;20196;-47
2022/10/14 04:20:13;;;;;;;45.07;31.63;;;;;;;;;;5054269;28;20206;-47
2022/10/14 04:22:39;;;;;;;44.10;33.23;;;;;;;;;;5054169;28;20286;-47
2022/10/14 04:25:06;;;;;;;40.47;32.07;;;;;;;;;;5053818;28;20702;-47
2022/10/14 04:27:32;;;;;;;39.40;30.53;;;;;;;;;;5053945;28;20254;-47
2022/10/14 04:29:58;;;;;;;41.03;31.77;;;;;;;;;;5053932;28;20228;-47
2022/10/14 04:32:24;;;;;;;41.67;30.90;;;;;;;;;;5053874;28;20196;-47
2022/10/14 04:34:51;;;;;;;40.10;30.27;;;;;;;;;;5053325;28;20604;-47
2022/10/14 04:37:18;;;;;;;41.73;30.27;;;;;;;;;;5052538;28;20195;-47
2022/10/14 04:39:44;;;;;;;41.60;30.90;;;;;;;;;;5053711;28;20220;-47
2022/10/14 04:42:10;;;;;;;41.67;31.33;;;;;;;;;;5053666;28;20198;-47
2022/10/14 04:44:36;;;;;;;41.47;31.13;;;;;;;;;;5053639;28;20227;-47
2022/10/14 04:47:02;;;;;;;39.50;30.67;;;;;;;;;;5053636;28;20202;-47
2022/10/14 04:49:28;;;;;;;40.57;30.97;;;;;;;;;;5053364;28;20227;-47
2022/10/14 04:51:54;;;;;;;39.40;29.50;;;;;;;;;;5053570;28;20200;-47
2022/10/14 04:54:21;;;;;;;44.83;32.53;;;;;;;;;;5053455;28;20270;-47
2022/10/14 04:56:47;;;;;;;42.00;31.67;;;;;;;;;;5053631;28;20205;-47
2022/10/14 04:59:14;;;;;;;41.53;31.27;;;;;;;;;;5053316;28;20192;-47
2022/10/14 05:01:40;;;;;;;38.33;29.97;;;;;;;;;;5053478;28;20208;-46
2022/10/14 05:04:06;;;;;;;35.07;29.17;;;;;;;;;;5052673;28;20208;-47
2022/10/14 05:06:32;;;;;;;36.13;27.93;;;;;;;;;;5052577;28;20281;-47
2022/10/14 05:08:59;;;;;;;39.00;29.93;;;;;;;;;;5053493;28;20646;-48
2022/10/14 05:11:26;;;;;;;40.60;31.90;;;;;;;;;;5053134;28;20279;-45
2022/10/14 05:13:52;;;;;;;38.37;30.83;;;;;;;;;;5052499;28;20675;-47
2022/10/14 05:16:18;;;;;;;42.10;34.07;;;;;;;;;;5052096;28;20204;-45
2022/10/14 05:18:44;;;;;;;41.10;33.13;;;;;;;;;;5053012;28;20206;-46
2022/10/14 05:21:11;;;;;;;41.33;33.07;;;;;;;;;;5052632;28;20542;-47
2022/10/14 05:23:37;;;;;;;46.50;33.40;;;;;;;;;;5053005;28;20247;-48
2022/10/14 05:26:03;;;;;;;40.47;30.80;;;;;;;;;;5050401;28;20220;-47
2022/10/14 05:28:31;;;;;;;40.37;32.23;;;;;;;;;;5051953;28;20200;-45
2022/10/14 05:30:57;;;;;;;46.77;33.33;;;;;;;;;;5052005;28;20283;-47
2022/10/14 05:33:23;;;;;;;46.73;33.23;;;;;;;;;;5052307;28;20283;-46
2022/10/14 05:35:49;;;;;;;39.10;30.93;;;;;;;;;;5051769;28;20215;-46
2022/10/14 05:38:15;;;;;;;40.63;32.03;;;;;;;;;;5052593;28;20200;-46
2022/10/14 05:40:41;;;;;;;42.57;32.17;;;;;;;;;;5052766;28;20203;-46
2022/10/14 05:43:07;;;;;;;39.00;30.07;;;;;;;;;;5051059;28;20576;-45
2022/10/14 05:45:35;;;;;;;44.07;32.40;;;;;;;;;;5051417;28;20652;-46
2022/10/14 05:48:01;;;;;;;36.70;30.97;;;;;;;;;;5051584;28;20636;-46
2022/10/14 05:50:27;;;;;;;41.30;31.13;;;;;;;;;;5052081;28;20236;-47
2022/10/14 05:52:53;;;;;;;42.27;32.33;;;;;;;;;;5052128;28;20199;-46
2022/10/14 05:55:19;;;;;;;35.87;29.20;;;;;;;;;;5052260;28;20195;-47
2022/10/14 05:57:45;;;;;;;37.63;29.07;;;;;;;;;;5052356;28;20196;-46
2022/10/14 06:00:12;;;;;;;32.83;27.83;;;;;;;;;;5052041;28;20658;-46
2022/10/14 06:02:40;;;;;;;35.33;27.40;;;;;;;;;;5051738;28;20204;-47
2022/10/14 06:05:06;;;;;;;36.80;27.90;;;;;;;;;;5051386;28;20315;-47
2022/10/14 06:07:35;;;;;;;41.30;30.77;;;;;;;;;;5051599;28;20215;-47
2022/10/14 06:10:01;;;;;;;43.20;31.17;;;;;;;;;;5051876;28;20739;-46
2022/10/14 06:12:27;;;;;;;37.30;28.67;;;;;;;;;;5051688;28;20196;-46
2022/10/14 06:14:53;;;;;;;39.53;30.17;;;;;;;;;;5051306;28;20192;-46
2022/10/14 06:17:19;;;;;;;43.47;30.93;;;;;;;;;;5051405;28;20200;-46
2022/10/14 06:19:46;;;;;;;39.87;29.47;;;;;;;;;;5051020;28;20270;-46
2022/10/14 06:22:12;;;;;;;45.73;32.97;;;;;;;;;;5051896;28;20220;-47
2022/10/14 06:24:38;;;;;;;45.00;34.47;;;;;;;;;;5051230;28;20640;-46
2022/10/14 06:27:04;;;;;;;49.87;36.97;;;;;;;;;;5051677;28;20294;-47
2022/10/14 06:29:36;;;;;;;45.93;33.17;;;;;;;;;;5051448;28;20283;-45
2022/10/14 06:32:02;;;;;;;46.77;35.80;;;;;;;;;;5051890;28;20196;-46
2022/10/14 06:34:28;;;;;;;47.17;35.90;;;;;;;;;;5050889;28;20197;-46
2022/10/14 06:36:56;;;;;;;44.70;31.73;;;;;;;;;;5051269;28;20386;-46
2022/10/14 06:39:22;;;;;;;36.60;29.53;;;;;;;;;;5050705;28;20204;-46
2022/10/14 06:41:48;;;;;;;40.93;29.53;;;;;;;;;;5051252;28;20200;-47
2022/10/14 06:44:15;;;;;;;37.87;29.37;;;;;;;;;;5051463;28;20303;-47
2022/10/14 06:46:41;;;;;;;37.90;28.77;;;;;;;;;;5051100;28;20545;-47
2022/10/14 06:49:08;;;;;;;38.97;27.77;;;;;;;;;;5050760;28;20682;-46
2022/10/14 06:51:34;;;;;;;37.67;28.13;;;;;;;;;;5051144;28;20267;-47
2022/10/14 06:54:02;;;;;;;42.77;29.43;;;;;;;;;;5051529;28;20690;-47
2022/10/14 06:56:28;;;;;;;39.67;28.37;;;;;;;;;;5049983;28;20634;-47
2022/10/14 06:58:54;;;;;;;38.97;26.77;;;;;;;;;;5050856;28;20712;-48
2022/10/14 07:01:20;;;;;;;37.90;26.87;;;;;;;;;;5050954;28;20206;-47
2022/10/14 07:03:46;;;;;;;32.20;25.20;;;;;;;;;;5051366;28;20207;-47
2022/10/14 07:06:12;;;;;;;36.67;25.67;;;;;;;;;;5050365;28;20220;-48
2022/10/14 07:08:38;;;;;;;40.87;26.40;;;;;;;;;;5051192;28;20255;-46
2022/10/14 07:11:06;;;;;;;33.33;25.33;;;;;;;;;;5051086;28;20212;-47
2022/10/14 07:13:36;;;;;;;36.50;26.53;;;;;;;;;;5050843;28;20203;-47
2022/10/14 07:16:03;;;;;;;33.83;26.27;;;;;;;;;;5050618;28;20255;-47
2022/10/14 07:18:29;;;;;;;35.37;26.30;;;;;;;;;;5050765;28;20656;-47
2022/10/14 07:20:55;;;;;;;37.13;26.27;;;;;;;;;;5051310;28;20291;-46
2022/10/14 07:23:21;;;;;;;31.47;25.27;;;;;;;;;;5050797;28;20203;-46
2022/10/14 07:25:47;;;;;;;33.20;26.00;;;;;;;;;;5050895;28;20686;-44
2022/10/14 07:28:17;;;;;;;32.93;26.03;;;;;;;;;;5050736;28;20204;-47
2022/10/14 07:30:43;;;;;;;30.93;24.53;;;;;;;;;;5052654;28;20200;-45
2022/10/14 07:33:09;;;;;;;30.00;24.90;;;;;;;;;;5054911;28;20577;-45
2022/10/14 07:35:37;;;;;;;30.67;23.87;;;;;;;;;;5055090;28;20226;-46
2022/10/14 07:38:03;;;;;;;29.20;22.93;;;;;;;;;;5054337;28;20200;-46
2022/10/14 07:40:29;;;;;;;28.53;23.83;;;;;;;;;;5054875;28;20196;-44
2022/10/14 07:42:56;;;;;;;29.07;23.53;;;;;;;;;;5055000;28;20192;-45
2022/10/14 07:45:23;;;;;;;26.47;21.47;;;;;;;;;;5053180;28;20224;-44
2022/10/14 07:47:50;;;;;;;24.63;20.97;;;;;;;;;;5054983;28;20201;-44
2022/10/14 07:50:16;;;;;;;24.60;20.97;;;;;;;;;;5054873;28;20720;-45
2022/10/14 07:52:42;;;;;;;24.17;20.57;;;;;;;;;;5055266;28;20231;-45
2022/10/14 07:55:08;;;;;;;23.10;19.67;;;;;;;;;;5055264;28;20246;-45
2022/10/14 07:57:34;;;;;;;23.47;19.67;;;;;;;;;;5055450;28;20192;-46
2022/10/14 08:00:02;;;;;;;24.83;20.03;;;;;;;;;;5055110;28;20218;-45
2022/10/14 08:02:29;;;;;;;26.80;21.10;;;;;;;;;;5055040;28;20207;-45
2022/10/14 08:04:55;;;;;;;27.83;21.20;;;;;;;;;;5054927;28;20255;-44
2022/10/14 08:07:22;;;;;;;22.63;20.20;;;;;;;;;;5054895;28;20228;-45
2022/10/14 08:09:48;;;;;;;25.77;21.07;;;;;;;;;;5054811;28;20658;-45
2022/10/14 08:12:14;;;;;;;19.97;17.87;;;;;;;;;;5054684;28;20201;-44
2022/10/14 08:14:40;;;;;;;22.23;19.73;;;;;;;;;;5054674;28;20204;-46
2022/10/14 08:17:06;;;;;;;21.27;19.07;;;;;;;;;;5054702;28;20266;-46
2022/10/14 08:19:34;;;;;;;20.80;18.60;;;;;;;;;;5054500;28;20561;-46
2022/10/14 08:22:00;;;;;;;21.27;19.07;;;;;;;;;;5054857;28;20739;-45
2022/10/14 08:24:26;;;;;;;21.40;18.97;;;;;;;;;;5054496;28;20728;-45
2022/10/14 08:26:53;;;;;;;21.60;17.93;;;;;;;;;;5054498;28;20706;-45
2022/10/14 08:29:21;;;;;;;19.93;17.50;;;;;;;;;;5054519;28;20207;-45
2022/10/14 08:31:47;;;;;;;19.63;17.53;;;;;;;;;;5054603;28;20262;-45
2022/10/14 08:34:13;;;;;;;19.40;17.33;;;;;;;;;;5054486;28;20223;-45
2022/10/14 08:36:41;;;;;;;19.80;17.70;;;;;;;;;;5054318;28;20235;-45
2022/10/14 08:39:07;;;;;;;19.07;17.07;;;;;;;;;;5054450;28;20287;-45
2022/10/14 08:41:43;;;;;;;19.27;17.20;;;;;;;;;;5053132;28;20192;-46
2022/10/14 08:44:12;;;;;;;18.50;16.50;;;;;;;;;;5053803;28;20207;-46
2022/10/14 08:46:40;;;;;;;20.93;18.43;;;;;;;;;;5052217;28;20697;-46
2022/10/14 08:49:09;;;;;;;23.20;18.87;;;;;;;;;;5052505;28;20203;-45
2022/10/14 08:51:36;;;;;;;22.20;18.77;;;;;;;;;;5053544;28;20342;-46
2022/10/14 08:54:07;;;;;;;26.53;21.07;;;;;;;;;;5051979;28;20257;-45
2022/10/14 08:56:34;;;;;;;30.03;23.03;;;;;;;;;;5054022;28;20200;-45
2022/10/14 08:59:02;;;;;;;26.97;22.10;;;;;;;;;;5054408;28;20208;-45
2022/10/14 09:01:30;;;;;;;27.80;22.63;;;;;;;;;;5053837;28;20250;-46
2022/10/14 09:03:57;;;;;;;27.27;21.40;;;;;;;;;;5053706;28;20239;-45
2022/10/14 09:06:25;;;;;;;31.07;22.63;;;;;;;;;;5053003;28;20650;-45
2022/10/14 09:08:52;;;;;;;29.27;21.67;;;;;;;;;;5051848;28;20243;-44
2022/10/14 09:11:21;;;;;;;29.77;22.00;;;;;;;;;;5052566;28;20806;-45
2022/10/14 09:13:48;;;;;;;27.50;21.13;;;;;;;;;;5052876;28;20204;-44
2022/10/14 09:16:17;;;;;;;26.60;21.13;;;;;;;;;;5053037;28;20196;-46
2022/10/14 09:18:45;;;;;;;27.93;21.43;;;;;;;;;;5053592;28;20560;-45
2022/10/14 09:21:22;;;;;;;27.33;22.10;;;;;;;;;;5053735;28;20214;-45
2022/10/14 09:23:53;;;;;;;25.90;20.93;;;;;;;;;;5052724;28;20199;-45
2022/10/14 09:26:20;;;;;;;29.03;19.97;;;;;;;;;;5053002;28;20227;-45
2022/10/14 09:28:49;;;;;;;25.40;19.37;;;;;;;;;;5051856;28;20207;-46
2022/10/14 09:31:15;;;;;;;22.67;17.50;;;;;;;;;;5052455;28;20209;-46
2022/10/14 09:33:41;;;;;;;22.97;17.20;;;;;;;;;;5052694;28;20228;-46
2022/10/14 09:36:11;;;;;;;19.13;15.30;;;;;;;;;;5052842;28;20290;-46
2022/10/14 09:38:37;;;;;;;21.57;16.10;;;;;;;;;;5051189;28;20289;-46
2022/10/14 09:41:06;;;;;;;20.70;16.33;;;;;;;;;;5053084;28;20203;-46
2022/10/14 09:43:34;;;;;;;25.40;17.77;;;;;;;;;;5053124;28;20241;-46
2022/10/14 09:46:01;;;;;;;22.07;17.00;;;;;;;;;;5052836;28;20271;-46
2022/10/14 09:48:32;;;;;;;21.40;15.40;;;;;;;;;;5052889;28;20196;-45
2022/10/14 09:51:00;;;;;;;18.03;14.47;;;;;;;;;;5052683;28;20695;-46
2022/10/14 09:53:28;;;;;;;17.57;14.07;;;;;;;;;;5052577;28;20235;-46
2022/10/14 09:55:55;;;;;;;17.10;12.93;;;;;;;;;;5052825;28;20196;-46
2022/10/14 09:58:25;;;;;;;13.37;10.37;;;;;;;;;;5052690;28;20200;-45
2022/10/14 10:00:55;;;;;;;14.60;10.20;;;;;;;;;;5052663;28;20234;-45
2022/10/14 10:03:26;;;;;;;11.33;9.47;;;;;;;;;;5052521;28;20291;-45
2022/10/14 10:05:58;;;;;;;9.20;8.13;;;;;;;;;;5052477;28;20690;-45
2022/10/14 10:08:25;;;;;;;10.20;8.77;;;;;;;;;;5052575;28;20289;-45
2022/10/14 10:10:59;;;;;;;10.80;8.77;;;;;;;;;;5052506;28;20219;-45
2022/10/14 10:13:31;;;;;;;9.63;8.23;;;;;;;;;;5052488;28;20200;-45
2022/10/14 10:15:59;;;;;;;9.63;8.00;;;;;;;;;;5052353;28;20187;-45
2022/10/14 10:18:25;;;;;;;8.90;7.73;;;;;;;;;;5052491;28;20199;-46
2022/10/14 10:21:00;;;;;;;9.07;7.57;;;;;;;;;;5052380;28;20200;-45
2022/10/14 10:23:27;;;;;;;7.93;7.13;;;;;;;;;;5052196;28;20672;-46
2022/10/14 10:25:54;;;;;;;8.07;7.27;;;;;;;;;;5052175;28;20255;-46
2022/10/14 10:28:26;;;;;;;10.27;7.97;;;;;;;;;;5052089;28;20227;-46
2022/10/14 10:31:04;;;;;;;10.67;8.50;;;;;;;;;;5052178;28;20211;-46
2022/10/14 10:33:35;;;;;;;11.37;8.40;;;;;;;;;;5052038;28;20295;-46
2022/10/14 10:36:08;;;;;;;12.13;9.00;;;;;;;;;;5051890;28;20218;-46
2022/10/14 10:38:38;;;;;;;9.30;8.10;;;;;;;;;;5051979;28;20246;-46
2022/10/14 10:41:15;;;;;;;12.23;8.57;;;;;;;;;;5052063;28;20199;-45
2022/10/14 10:43:56;;;;;;;10.30;7.37;;;;;;;;;;5051877;28;20275;-45
2022/10/14 10:46:35;;;;;;;8.37;7.30;;;;;;;;;;5051684;28;20602;-45
2022/10/14 10:49:04;;;;;;;7.93;7.13;;;;;;;;;;5051837;28;20215;-45
2022/10/14 10:51:34;;;;;;;8.50;7.50;;;;;;;;;;5051673;28;20654;-46
2022/10/14 10:54:06;;;;;;;8.27;6.53;;;;;;;;;;5051907;28;20726;-46
2022/10/14 10:56:37;;;;;;;7.90;6.77;;;;;;;;;;5051542;28;20212;-45
2022/10/14 10:59:18;;;;;;;7.93;7.10;;;;;;;;;;5051819;28;20271;-46
2022/10/14 11:01:49;;;;;;;8.20;6.97;;;;;;;;;;5039040;28;20210;-45
2022/10/14 11:04:20;;;;;;;9.23;6.73;;;;;;;;;;5051473;28;20210;-45
2022/10/14 11:12:30;;;;;;;10.17;6.17;;;;;;;;;;5051583;28;20314;-46
2022/10/14 11:15:09;;;;;;;8.10;6.60;;;;;;;;;;5051417;28;20192;-46
2022/10/14 11:17:38;;;;;;;7.47;5.23;;;;;;;;;;5051376;28;20200;-46
2022/10/14 11:20:10;;;;;;;5.80;5.30;;;;;;;;;;5051642;28;20200;-46
2022/10/14 11:22:45;;;;;;;6.33;5.30;;;;;;;;;;5051582;28;20223;-46
2022/10/14 11:25:15;;;;;;;7.43;6.47;;;;;;;;;;5051679;28;20215;-47
2022/10/14 11:27:46;;;;;;;7.70;6.83;;;;;;;;;;5051334;28;20206;-46
2022/10/14 11:30:16;;;;;;;8.03;6.73;;;;;;;;;;5051371;28;20528;-46
2022/10/14 11:32:51;;;;;;;6.10;5.50;;;;;;;;;;5048930;28;20207;-46
2022/10/14 11:35:23;;;;;;;7.47;6.13;;;;;;;;;;5050411;28;20258;-46
2022/10/14 11:37:56;;;;;;;8.83;5.20;;;;;;;;;;5050056;28;20382;-46
2022/10/14 11:40:24;;;;;;;5.63;5.03;;;;;;;;;;5051000;28;20599;-47
2022/10/14 11:42:55;;;;;;;5.80;4.70;;;;;;;;;;5050859;28;20237;-46
2022/10/14 11:45:39;;;;;;;5.77;4.90;;;;;;;;;;5050757;28;20224;-47
2022/10/14 11:48:09;;;;;;;4.93;4.53;;;;;;;;;;5049968;28;20204;-46
2022/10/14 11:50:39;;;;;;;4.77;4.37;;;;;;;;;;5050620;28;20290;-46
2022/10/14 11:53:12;;;;;;;4.60;4.17;;;;;;;;;;5050911;28;20233;-46
2022/10/14 11:55:40;;;;;;;4.97;4.47;;;;;;;;;;5050337;28;20790;-46
2022/10/14 11:58:10;;;;;;;6.20;4.23;;;;;;;;;;5050321;28;20243;-45
2022/10/14 12:00:55;;;;;;;5.33;4.43;;;;;;;;;;5049646;28;20212;-46
2022/10/14 12:03:26;;;;;;;5.27;4.00;;;;;;;;;;5049878;28;20239;-46
2022/10/14 12:05:58;;;;;;;4.70;3.90;;;;;;;;;;5050341;28;20224;-46
2022/10/14 12:08:26;;;;;;;4.20;3.70;;;;;;;;;;5050368;28;20703;-46
2022/10/14 12:10:55;;;;;;;3.70;3.07;;;;;;;;;;5050523;28;20872;-46
2022/10/14 12:13:25;;;;;;;4.13;3.17;;;;;;;;;;5050683;28;20227;-46
2022/10/14 12:15:52;;;;;;;3.10;2.80;;;;;;;;;;5051045;28;20196;-46
2022/10/14 12:18:18;;;;;;;3.13;2.60;;;;;;;;;;5054053;28;20204;-46
2022/10/14 12:20:48;;;;;;;3.20;2.90;;;;;;;;;;5054251;28;20223;-46
2022/10/14 12:23:17;;;;;;;3.27;2.97;;;;;;;;;;5054202;28;20285;-46
2022/10/14 12:25:49;;;;;;;3.17;2.87;;;;;;;;;;5054197;28;20216;-46
2022/10/14 12:28:16;;;;;;;3.60;3.30;;;;;;;;;;5053864;28;20222;-46
2022/10/14 12:30:43;;;;;;;3.63;2.90;;;;;;;;;;5054023;28;20303;-46
2022/10/14 12:33:10;;;;;;;2.57;2.37;;;;;;;;;;5053696;28;20188;-46
2022/10/14 12:35:49;;;;;;;2.70;2.50;;;;;;;;;;5053522;28;20693;-46
2022/10/14 12:38:15;;;;;;;2.97;2.40;;;;;;;;;;5053888;28;20662;-46
2022/10/14 12:40:41;;;;;;;2.57;2.37;;;;;;;;;;5053722;28;20200;-47
2022/10/14 12:43:16;;;;;;;2.40;2.20;;;;;;;;;;5053830;28;20287;-46
2022/10/14 12:45:50;;;;;;;3.00;2.30;;;;;;;;;;5053092;28;20236;-47
2022/10/14 12:48:18;;;;;;;2.83;2.50;;;;;;;;;;5052952;28;20292;-47
2022/10/14 12:50:45;;;;;;;2.60;2.40;;;;;;;;;;5053261;28;20235;-47
2022/10/14 12:53:20;;;;;;;2.40;2.20;;;;;;;;;;5052468;28;20567;-45
2022/10/14 12:55:50;;;;;;;4.30;2.60;;;;;;;;;;5053366;28;20199;-45
2022/10/14 12:58:20;;;;;;;3.57;2.13;;;;;;;;;;5053342;28;20777;-45
2022/10/14 13:00:52;;;;;;;2.63;2.30;;;;;;;;;;5054040;28;20196;-47
2022/10/14 13:03:20;;;;;;;3.70;2.80;;;;;;;;;;5053076;28;20261;-45
2022/10/14 13:05:46;;;;;;;2.93;2.63;;;;;;;;;;5053177;28;20254;-45
2022/10/14 13:08:13;;;;;;;3.20;2.30;;;;;;;;;;5053202;28;20706;-45
2022/10/14 13:10:46;;;;;;;2.40;2.17;;;;;;;;;;5049918;28;20287;-45
2022/10/14 13:13:31;;;;;;;3.63;2.70;;;;;;;;;;5053539;28;20201;-46
2022/10/14 13:15:58;;;;;;;3.40;2.87;;;;;;;;;;5053409;28;20286;-46
2022/10/14 13:18:43;;;;;;;2.80;2.60;;;;;;;;;;5053396;28;20813;-45
2022/10/14 13:21:09;;;;;;;5.43;2.90;;;;;;;;;;5052426;28;20719;-46
2022/10/14 13:23:38;;;;;;;3.10;2.60;;;;;;;;;;5052922;28;20196;-46
2022/10/14 13:26:21;;;;;;;2.93;2.73;;;;;;;;;;5053427;28;20227;-46
2022/10/14 13:28:53;;;;;;;3.33;2.10;;;;;;;;;;5050976;28;20208;-46
2022/10/14 13:31:23;;;;;;;2.30;2.00;;;;;;;;;;5053283;28;20576;-46
2022/10/14 13:33:51;;;;;;;2.70;2.33;;;;;;;;;;5053404;28;20275;-46
2022/10/14 13:36:18;;;;;;;2.60;2.40;;;;;;;;;;5053335;28;20196;-46
2022/10/14 13:38:46;;;;;;;2.57;2.30;;;;;;;;;;5053302;28;20648;-45
2022/10/14 13:41:16;;;;;;;2.40;2.20;;;;;;;;;;5053364;28;20677;-45
2022/10/14 13:43:42;;;;;;;2.33;2.13;;;;;;;;;;5052917;28;20227;-46
2022/10/14 13:46:13;;;;;;;2.63;2.43;;;;;;;;;;5053001;28;20225;-45
2022/10/14 13:48:42;;;;;;;3.43;2.30;;;;;;;;;;5052875;28;20204;-46
2022/10/14 13:51:25;;;;;;;2.40;2.20;;;;;;;;;;5052855;28;20244;-45
2022/10/14 13:53:52;;;;;;;2.27;2.07;;;;;;;;;;5052888;28;20200;-45
2022/10/14 13:56:20;;;;;;;2.40;2.20;;;;;;;;;;5050601;28;20199;-46
2022/10/14 13:58:46;;;;;;;2.80;2.60;;;;;;;;;;5048791;28;20192;-45
2022/10/14 14:01:14;;;;;;;2.10;1.90;;;;;;;;;;5051901;28;20199;-45
2022/10/14 14:03:42;;;;;;;2.53;2.33;;;;;;;;;;5049674;28;20259;-45
2022/10/14 14:06:09;;;;;;;2.00;1.87;;;;;;;;;;5052302;28;20239;-46
2022/10/14 14:08:37;;;;;;;1.80;1.70;;;;;;;;;;5047829;28;20243;-46
2022/10/14 14:11:05;;;;;;;1.93;1.77;;;;;;;;;;5052220;28;20246;-46
2022/10/14 14:13:33;;;;;;;1.77;1.57;;;;;;;;;;5051354;28;20283;-46
2022/10/14 14:15:59;;;;;;;2.03;1.60;;;;;;;;;;5051968;28;20314;-46
2022/10/14 14:18:28;;;;;;;1.80;1.70;;;;;;;;;;5051928;28;20200;-46
2022/10/14 14:20:57;;;;;;;1.60;1.50;;;;;;;;;;5051203;28;20568;-46
2022/10/14 14:23:23;;;;;;;1.83;1.73;;;;;;;;;;5051384;28;20216;-46
2022/10/14 14:25:49;;;;;;;3.50;1.70;;;;;;;;;;5051960;28;20232;-46
2022/10/14 14:28:17;;;;;;;3.97;1.77;;;;;;;;;;5052040;28;20611;-46
2022/10/14 14:30:48;;;;;;;1.70;1.53;;;;;;;;;;5052216;28;20221;-46
2022/10/14 14:33:16;;;;;;;1.80;1.50;;;;;;;;;;5052012;28;20200;-46
2022/10/14 14:35:52;;;;;;;1.70;1.60;;;;;;;;;;5051862;28;20275;-46